createdAt,value
2023-06-04T00:06:02.075Z,10.10
2023-06-04T00:16:04.026Z,10.00
2023-06-04T00:26:06.005Z,9.90
2023-06-04T00:36:08.183Z,9.80
2023-06-04T00:46:10.213Z,9.70
2023-06-04T00:56:13.618Z,9.70
2023-06-04T01:06:34.962Z,9.60
2023-06-04T01:16:46.727Z,9.50
2023-06-04T01:26:50.344Z,9.50
2023-06-04T01:36:52.451Z,9.40
2023-06-04T01:46:54.418Z,9.30
2023-06-04T01:56:56.367Z,9.10
2023-06-04T02:06:58.749Z,9.00
2023-06-04T02:17:00.930Z,9.00
2023-06-04T02:27:03.368Z,8.90
2023-06-04T02:37:06.184Z,8.90
2023-06-04T02:47:08.233Z,8.90
2023-06-04T02:57:10.265Z,8.80
2023-06-04T03:07:12.227Z,9.00
2023-06-04T03:17:14.154Z,9.10
2023-06-04T03:27:16.047Z,9.30
2023-06-04T03:37:18.647Z,9.90
2023-06-04T03:47:20.716Z,10.40
2023-06-04T03:57:22.704Z,11.10
2023-06-04T04:07:25.238Z,11.90
2023-06-04T04:17:27.469Z,13.00
2023-06-04T04:27:30.120Z,13.00
2023-06-04T04:37:32.857Z,13.30
2023-06-04T04:47:35.371Z,13.90
2023-06-04T04:57:37.364Z,15.10
2023-06-04T05:07:39.712Z,15.80
2023-06-04T05:17:41.875Z,15.10
2023-06-04T05:27:46.314Z,15.10
2023-06-04T05:37:49.488Z,15.70
2023-06-04T05:47:55.271Z,17.30
2023-06-04T05:57:58.189Z,16.90
2023-06-04T06:08:00.688Z,16.10
2023-06-04T06:18:02.899Z,17.20
2023-06-04T06:28:05.043Z,19.40
2023-06-04T06:38:08.184Z,20.60
2023-06-04T06:48:10.214Z,18.60
2023-06-04T06:58:12.132Z,20.20
2023-06-04T07:08:14.098Z,19.80
2023-06-04T07:18:16.061Z,18.90
2023-06-04T07:28:17.920Z,20.40
2023-06-04T07:38:19.877Z,20.50
2023-06-04T07:48:21.714Z,20.80
2023-06-04T07:58:24.393Z,22.60
2023-06-04T08:08:26.283Z,23.10
2023-06-04T08:18:28.111Z,22.70
2023-06-04T08:28:30.108Z,21.50
2023-06-04T08:38:32.295Z,21.90
2023-06-04T08:48:34.316Z,22.30
2023-06-04T08:58:40.903Z,22.20
2023-06-04T09:08:53.739Z,22.20
2023-06-04T09:19:02.132Z,21.70
2023-06-04T09:29:06.456Z,21.30
2023-06-04T09:39:18.170Z,22.40
2023-06-04T09:49:20.055Z,22.90
2023-06-04T09:59:21.986Z,21.40
2023-06-04T10:09:25.572Z,22.90
2023-06-04T10:19:28.788Z,23.40
2023-06-04T10:29:31.508Z,24.00
2023-06-04T10:39:33.971Z,22.70
2023-06-04T10:49:35.923Z,22.90
2023-06-04T10:59:59.890Z,23.50
2023-06-04T11:10:01.940Z,23.70
2023-06-04T11:20:04.595Z,24.20
2023-06-04T11:30:09.819Z,24.00
2023-06-04T11:40:19.067Z,23.90
2023-06-04T11:50:21.683Z,23.40
2023-06-04T12:00:24.040Z,23.50
2023-06-04T12:10:25.937Z,23.50
2023-06-04T12:20:36.538Z,23.10
2023-06-04T12:30:42.030Z,22.70
2023-06-04T12:40:44.124Z,23.00
2023-06-04T12:50:46.111Z,23.10
2023-06-04T13:00:48.024Z,22.90
2023-06-04T13:10:52.030Z,22.50
2023-06-04T13:20:53.919Z,23.00
2023-06-04T13:30:55.788Z,23.40
2023-06-04T13:40:57.804Z,23.00
2023-06-04T13:50:59.738Z,22.40
2023-06-04T14:01:01.774Z,22.10
2023-06-04T14:11:03.830Z,22.10
2023-06-04T14:21:05.890Z,22.20
2023-06-04T14:31:08.256Z,22.30
2023-06-04T14:41:10.519Z,22.30
2023-06-04T14:51:12.973Z,22.60
2023-06-04T15:01:14.937Z,22.70
2023-06-04T15:11:17.361Z,22.80
2023-06-04T15:21:19.363Z,22.90
2023-06-04T15:31:21.417Z,22.80
2023-06-04T15:41:23.450Z,22.60
2023-06-04T15:51:25.321Z,22.10
2023-06-04T16:01:27.366Z,22.00
2023-06-04T16:11:29.312Z,21.90
2023-06-04T16:21:31.328Z,22.10
2023-06-04T16:31:33.207Z,21.90
2023-06-04T16:41:35.171Z,22.10
2023-06-04T16:51:38.732Z,21.70
2023-06-04T17:01:40.518Z,21.30
2023-06-04T17:11:43.456Z,21.40
2023-06-04T17:21:45.678Z,21.40
2023-06-04T17:31:47.738Z,21.40
2023-06-04T17:41:49.575Z,21.30
2023-06-04T17:51:51.463Z,21.20
2023-06-04T18:01:53.304Z,21.00
2023-06-04T18:11:55.251Z,20.80
2023-06-04T18:21:57.203Z,20.50
2023-06-04T18:31:59.979Z,20.30
2023-06-04T18:52:05.528Z,19.70
2023-06-04T19:02:07.455Z,19.50
2023-06-04T19:12:09.416Z,19.20
2023-06-04T19:22:11.348Z,19.00
2023-06-04T19:32:13.546Z,18.50
2023-06-04T19:42:15.473Z,18.40
2023-06-04T19:52:17.489Z,18.20
2023-06-04T20:02:19.339Z,18.00
2023-06-04T20:12:21.500Z,17.70
2023-06-04T20:22:24.393Z,17.40
2023-06-04T20:32:26.594Z,17.20
2023-06-04T20:42:30.003Z,16.90
2023-06-04T20:52:31.992Z,16.70
2023-06-04T21:02:34.048Z,16.50
2023-06-04T21:12:35.994Z,16.30
2023-06-04T21:22:38.203Z,15.90
2023-06-04T21:32:40.302Z,15.70
2023-06-04T21:42:42.219Z,15.70
2023-06-04T21:52:44.568Z,15.40
2023-06-04T22:02:46.729Z,15.30
2023-06-04T22:12:48.680Z,15.10
2023-06-04T22:22:50.507Z,14.80
2023-06-04T22:32:54.003Z,14.60
2023-06-04T22:42:55.951Z,14.50
2023-06-04T22:52:57.855Z,14.30
2023-06-04T23:02:59.891Z,14.20
2023-06-04T23:13:01.794Z,13.90
2023-06-04T23:23:03.733Z,13.80
2023-06-04T23:33:05.914Z,13.60
2023-06-04T23:43:07.892Z,13.50
2023-06-04T23:53:10.056Z,13.30
